createdAt,value
2022-09-26T00:01:18.667Z,70.45
2022-09-26T00:03:47.780Z,70.72
2022-09-26T00:06:18.161Z,70.96
2022-09-26T00:08:46.722Z,70.74
2022-09-26T00:11:16.660Z,70.97
2022-09-26T00:13:44.281Z,71.17
2022-09-26T00:16:13.206Z,71.29
2022-09-26T00:18:40.721Z,71.40
2022-09-26T00:21:13.487Z,71.46
2022-09-26T00:23:42.226Z,71.67
2022-09-26T00:26:10.981Z,71.58
2022-09-26T00:28:38.360Z,71.50
2022-09-26T00:31:07.688Z,71.27
2022-09-26T00:33:35.181Z,71.43
2022-09-26T00:36:03.121Z,71.49
2022-09-26T00:38:30.544Z,71.27
2022-09-26T00:40:58.167Z,71.25
2022-09-26T00:43:32.748Z,71.31
2022-09-26T00:46:28.919Z,71.21
2022-09-26T00:49:06.059Z,70.98
2022-09-26T00:51:36.441Z,70.92
2022-09-26T00:54:04.940Z,71.02
2022-09-26T00:56:35.460Z,70.83
2022-09-26T00:59:33.241Z,70.90
2022-09-26T01:02:02.461Z,71.12
2022-09-26T01:04:32.950Z,71.05
2022-09-26T01:07:04.381Z,71.34
2022-09-26T01:09:32.502Z,71.56
2022-09-26T01:12:02.343Z,71.42
2022-09-26T01:14:30.601Z,71.52
2022-09-26T01:16:57.628Z,71.60
2022-09-26T01:19:30.402Z,71.88
2022-09-26T01:22:15.301Z,71.67
2022-09-26T01:25:03.520Z,71.94
2022-09-26T01:27:49.580Z,71.67
2022-09-26T01:30:28.003Z,71.79
2022-09-26T01:33:36.921Z,71.77
2022-09-26T01:36:17.020Z,71.73
2022-09-26T01:39:02.591Z,72.04
2022-09-26T01:41:58.940Z,71.99
2022-09-26T01:44:28.860Z,71.43
2022-09-26T01:47:08.462Z,71.55
2022-09-26T01:49:59.020Z,71.98
2022-09-26T01:52:37.387Z,72.12
2022-09-26T01:55:12.182Z,72.26
2022-09-26T01:57:52.161Z,72.25
2022-09-26T02:00:20.062Z,72.10
2022-09-26T02:02:50.856Z,72.29
2022-09-26T02:05:27.997Z,72.30
2022-09-26T02:08:07.241Z,72.15
2022-09-26T02:10:40.448Z,72.13
2022-09-26T02:13:20.596Z,71.90
2022-09-26T02:15:53.346Z,71.56
2022-09-26T02:18:31.004Z,71.78
2022-09-26T02:21:02.742Z,71.31
2022-09-26T02:23:30.381Z,70.90
2022-09-26T02:25:58.321Z,71.71
2022-09-26T02:28:25.461Z,71.95
2022-09-26T02:30:54.308Z,71.62
2022-09-26T02:33:22.623Z,71.94
2022-09-26T02:35:55.882Z,71.82
2022-09-26T02:38:28.001Z,71.83
2022-09-26T02:41:35.321Z,71.82
2022-09-26T02:44:21.921Z,72.07
2022-09-26T02:47:22.622Z,72.38
2022-09-26T02:50:17.902Z,72.50
2022-09-26T02:53:14.741Z,72.89
2022-09-26T02:56:01.729Z,72.74
2022-09-26T02:58:47.500Z,72.69
2022-09-26T03:01:27.724Z,72.66
2022-09-26T03:04:41.974Z,72.46
2022-09-26T03:07:15.057Z,72.36
2022-09-26T03:09:43.836Z,72.56
2022-09-26T03:12:13.529Z,71.89
2022-09-26T03:14:43.061Z,72.23
2022-09-26T03:17:11.003Z,72.10
2022-09-26T03:19:45.481Z,71.99
2022-09-26T03:22:13.380Z,71.83
2022-09-26T03:24:44.920Z,72.00
2022-09-26T03:27:15.100Z,71.90
2022-09-26T03:29:42.315Z,71.93
2022-09-26T03:32:15.340Z,71.58
2022-09-26T03:34:42.803Z,71.43
2022-09-26T03:37:09.820Z,71.32
2022-09-26T03:39:38.257Z,71.47
2022-09-26T03:42:16.902Z,71.51
2022-09-26T03:44:46.462Z,71.55
2022-09-26T03:47:14.840Z,71.94
2022-09-26T03:49:48.762Z,71.65
2022-09-26T03:52:16.022Z,71.26
2022-09-26T03:54:44.400Z,71.78
2022-09-26T03:57:16.220Z,71.79
2022-09-26T03:59:51.131Z,71.59
2022-09-26T04:02:20.129Z,71.44
2022-09-26T04:04:53.961Z,71.66
2022-09-26T04:07:22.389Z,71.97
2022-09-26T04:09:49.480Z,72.26
2022-09-26T04:12:16.910Z,71.92
2022-09-26T04:14:44.948Z,71.93
2022-09-26T04:17:12.999Z,72.03
2022-09-26T04:19:43.291Z,72.15
2022-09-26T04:22:10.421Z,71.94
2022-09-26T04:24:38.197Z,71.52
2022-09-26T04:27:06.599Z,71.21
2022-09-26T04:29:33.845Z,71.04
2022-09-26T04:32:13.645Z,71.20
2022-09-26T04:35:00.718Z,71.05
2022-09-26T04:37:27.838Z,70.67
2022-09-26T04:39:54.784Z,70.40
2022-09-26T04:42:22.099Z,70.29
2022-09-26T04:44:49.174Z,70.26
2022-09-26T04:47:17.239Z,70.58
2022-09-26T04:50:07.639Z,70.50
2022-09-26T04:52:34.866Z,70.27
2022-09-26T04:55:01.998Z,70.11
2022-09-26T04:57:29.116Z,69.78
2022-09-26T04:59:56.085Z,69.87
2022-09-26T05:02:23.306Z,70.23
2022-09-26T05:04:51.496Z,70.88
2022-09-26T05:07:19.703Z,70.69
2022-09-26T05:09:48.137Z,70.94
2022-09-26T05:12:18.416Z,71.10
2022-09-26T05:14:49.216Z,70.57
2022-09-26T05:17:16.664Z,70.92
2022-09-26T05:19:46.219Z,71.50
2022-09-26T05:22:21.680Z,71.34
2022-09-26T05:25:07.721Z,71.64
2022-09-26T05:27:36.538Z,71.54
2022-09-26T05:30:03.878Z,71.40
2022-09-26T05:32:30.938Z,71.41
2022-09-26T05:34:58.625Z,70.79
2022-09-26T05:37:28.637Z,71.17
2022-09-26T05:40:14.276Z,71.30
2022-09-26T05:42:49.439Z,71.58
2022-09-26T05:45:16.599Z,71.79
2022-09-26T05:47:44.418Z,72.02
2022-09-26T05:50:11.918Z,71.83
2022-09-26T05:52:40.065Z,71.72
2022-09-26T05:55:12.065Z,71.72
2022-09-26T05:58:19.184Z,71.75
2022-09-26T06:01:16.653Z,71.95
2022-09-26T06:03:46.477Z,71.66
2022-09-26T06:06:22.063Z,72.01
2022-09-26T06:08:54.746Z,72.10
2022-09-26T06:11:50.478Z,71.69
2022-09-26T06:14:17.545Z,71.24
2022-09-26T06:16:46.037Z,70.64
2022-09-26T06:19:14.128Z,70.71
2022-09-26T06:21:44.345Z,70.44
2022-09-26T06:24:15.418Z,70.48
2022-09-26T06:26:43.277Z,70.43
2022-09-26T06:29:11.079Z,70.76
2022-09-26T06:31:41.025Z,70.27
2022-09-26T06:34:13.201Z,70.52
2022-09-26T06:36:59.740Z,70.34
2022-09-26T06:39:37.241Z,70.50
2022-09-26T06:42:07.680Z,70.61
2022-09-26T06:44:53.618Z,70.26
2022-09-26T06:47:23.597Z,70.47
2022-09-26T06:50:00.378Z,69.94
2022-09-26T06:52:35.125Z,70.29
2022-09-26T06:55:04.296Z,70.93
2022-09-26T06:57:40.314Z,70.81
2022-09-26T07:00:10.100Z,69.99
2022-09-26T07:03:09.201Z,70.27
2022-09-26T07:05:48.599Z,69.48
2022-09-26T07:08:17.164Z,68.46
2022-09-26T07:10:44.477Z,67.99
2022-09-26T07:13:22.448Z,68.82
2022-09-26T07:15:50.803Z,68.31
2022-09-26T07:18:45.940Z,67.80
2022-09-26T07:21:31.518Z,67.93
2022-09-26T07:24:05.516Z,68.21
2022-09-26T07:26:32.559Z,67.72
2022-09-26T07:28:59.578Z,67.64
2022-09-26T07:31:28.741Z,67.21
2022-09-26T07:34:08.948Z,67.45
2022-09-26T07:36:39.955Z,67.17
2022-09-26T07:39:08.462Z,67.10
2022-09-26T07:41:35.456Z,66.85
2022-09-26T07:47:09.077Z,66.92
2022-09-26T07:49:54.644Z,67.12
2022-09-26T07:52:51.077Z,67.67
2022-09-26T07:55:28.317Z,68.00
2022-09-26T07:58:15.623Z,68.16
2022-09-26T08:00:45.458Z,68.77
2022-09-26T08:03:29.845Z,68.91
2022-09-26T08:06:01.216Z,68.78
2022-09-26T08:08:29.867Z,68.55
2022-09-26T08:11:03.672Z,68.20
2022-09-26T08:13:44.024Z,68.50
2022-09-26T08:16:27.430Z,68.56
2022-09-26T08:18:59.088Z,68.27
2022-09-26T08:21:26.416Z,67.92
2022-09-26T08:23:56.940Z,67.96
2022-09-26T08:26:44.892Z,67.23
2022-09-26T08:29:17.268Z,67.82
2022-09-26T08:31:47.931Z,67.49
2022-09-26T08:34:15.164Z,67.34
2022-09-26T08:36:45.257Z,67.63
2022-09-26T08:39:12.676Z,67.43
2022-09-26T08:42:19.365Z,67.28
2022-09-26T08:45:48.197Z,67.71
2022-09-26T08:48:48.719Z,67.79
2022-09-26T08:51:31.998Z,67.96
2022-09-26T08:54:06.201Z,67.75
2022-09-26T08:56:42.257Z,67.72
2022-09-26T08:59:23.858Z,67.84
2022-09-26T09:01:55.719Z,67.78
2022-09-26T09:04:54.035Z,67.97
2022-09-26T09:07:25.418Z,68.93
2022-09-26T09:09:56.937Z,68.18
2022-09-26T09:13:05.818Z,67.93
2022-09-26T09:16:16.257Z,67.54
2022-09-26T09:19:33.419Z,67.02
2022-09-26T09:22:23.781Z,66.59
2022-09-26T09:25:17.699Z,66.16
2022-09-26T09:28:38.461Z,66.53
2022-09-26T09:31:11.756Z,65.96
2022-09-26T09:34:20.537Z,66.38
2022-09-26T09:37:19.469Z,66.47
2022-09-26T09:40:18.844Z,66.02
2022-09-26T09:43:05.638Z,66.37
2022-09-26T09:45:47.316Z,65.40
2022-09-26T09:48:15.836Z,64.47
2022-09-26T09:50:52.904Z,65.06
2022-09-26T09:53:45.517Z,64.36
2022-09-26T09:56:18.976Z,64.61
2022-09-26T09:59:09.044Z,63.96
2022-09-26T10:02:17.077Z,64.33
2022-09-26T10:04:51.041Z,64.37
2022-09-26T10:07:18.517Z,63.92
2022-09-26T10:10:03.796Z,63.89
2022-09-26T10:13:01.140Z,63.80
2022-09-26T10:15:59.276Z,63.59
2022-09-26T10:19:08.838Z,63.22
2022-09-26T10:21:39.657Z,63.09
2022-09-26T10:24:22.402Z,62.04
2022-09-26T10:26:54.717Z,61.43
2022-09-26T10:29:37.007Z,61.40
2022-09-26T10:32:05.558Z,60.88
2022-09-26T10:34:35.978Z,61.21
2022-09-26T10:37:25.436Z,61.20
2022-09-26T10:40:42.314Z,61.55
2022-09-26T10:43:22.658Z,61.02
2022-09-26T10:46:02.434Z,61.41
2022-09-26T10:48:49.286Z,61.19
2022-09-26T10:51:45.797Z,60.80
2022-09-26T10:54:25.177Z,59.86
2022-09-26T10:56:59.411Z,59.03
2022-09-26T10:59:36.437Z,58.71
2022-09-26T11:13:39.197Z,58.19
2022-09-26T11:16:15.338Z,57.34
2022-09-26T11:18:51.538Z,58.03
2022-09-26T11:21:47.359Z,57.34
2022-09-26T11:24:22.962Z,56.34
2022-09-26T11:27:22.059Z,56.37
2022-09-26T11:30:00.185Z,55.57
2022-09-26T11:32:32.418Z,55.21
2022-09-26T11:35:54.903Z,53.53
2022-09-26T11:38:47.868Z,53.77
2022-09-26T11:41:49.876Z,53.36
2022-09-26T11:44:35.980Z,53.32
2022-09-26T11:47:38.757Z,52.48
2022-09-26T11:50:40.207Z,51.72
2022-09-26T11:53:50.336Z,52.23
2022-09-26T11:56:49.140Z,52.96
2022-09-26T11:59:47.657Z,53.21
2022-09-26T12:02:40.111Z,52.75
2022-09-26T12:05:29.777Z,53.98
2022-09-26T12:08:32.107Z,55.03
2022-09-26T12:11:02.078Z,54.67
2022-09-26T12:13:38.297Z,55.55
2022-09-26T12:16:22.349Z,55.62
2022-09-26T12:18:54.799Z,56.51
2022-09-26T12:21:26.234Z,57.26
2022-09-26T12:23:57.558Z,57.61
2022-09-26T12:26:52.278Z,57.95
2022-09-26T12:29:31.777Z,58.21
2022-09-26T12:32:07.841Z,58.76
2022-09-26T12:34:37.938Z,58.97
2022-09-26T12:37:23.556Z,59.05
2022-09-26T12:40:32.473Z,59.82
2022-09-26T12:43:46.587Z,59.89
2022-09-26T12:46:44.287Z,60.49
2022-09-26T12:49:31.077Z,60.49
2022-09-26T12:52:36.721Z,59.89
2022-09-26T12:55:14.443Z,59.47
2022-09-26T12:57:44.138Z,58.97
2022-09-26T13:00:18.961Z,59.05
2022-09-26T13:03:11.919Z,59.31
2022-09-26T13:05:42.386Z,60.25
2022-09-26T13:08:41.817Z,58.49
2022-09-26T13:11:40.020Z,56.37
2022-09-26T13:14:27.585Z,53.42
2022-09-26T13:17:15.997Z,49.92
2022-09-26T13:19:51.707Z,49.51
2022-09-26T13:22:27.882Z,49.13
2022-09-26T13:25:21.968Z,49.88
2022-09-26T13:27:58.218Z,49.11
2022-09-26T13:30:35.403Z,49.30
2022-09-26T13:33:11.659Z,50.00
2022-09-26T13:35:43.681Z,50.12
2022-09-26T13:38:39.458Z,49.87
2022-09-26T13:41:28.538Z,50.25
2022-09-26T13:44:23.220Z,50.82
2022-09-26T13:47:12.680Z,50.88
2022-09-26T13:49:51.109Z,50.76
2022-09-26T13:52:22.838Z,52.17
2022-09-26T13:55:02.201Z,52.44
2022-09-26T13:57:35.959Z,52.84
2022-09-26T14:00:30.139Z,52.90
2022-09-26T14:03:18.721Z,54.35
2022-09-26T14:05:50.157Z,54.29
2022-09-26T14:08:52.437Z,55.15
2022-09-26T14:11:19.498Z,55.33
2022-09-26T14:13:48.218Z,55.28
2022-09-26T14:16:27.475Z,55.82
2022-09-26T14:19:11.839Z,56.42
2022-09-26T14:21:38.939Z,56.04
2022-09-26T14:24:20.977Z,56.65
2022-09-26T14:27:04.900Z,56.58
2022-09-26T14:29:49.579Z,56.90
2022-09-26T14:32:20.260Z,57.07
2022-09-26T14:34:48.903Z,57.42
2022-09-26T14:37:27.451Z,56.88
2022-09-26T14:40:14.727Z,56.54
2022-09-26T14:42:44.900Z,56.73
2022-09-26T14:45:23.458Z,56.76
2022-09-26T14:48:05.018Z,57.30
2022-09-26T14:50:36.920Z,56.59
2022-09-26T14:53:27.220Z,57.51
2022-09-26T14:56:02.057Z,57.43
2022-09-26T14:58:38.222Z,57.22
2022-09-26T15:01:27.678Z,57.88
2022-09-26T15:04:21.222Z,58.41
2022-09-26T15:06:53.041Z,59.26
2022-09-26T15:09:40.393Z,59.62
2022-09-26T15:12:40.001Z,60.11
2022-09-26T15:15:31.100Z,60.42
2022-09-26T15:18:27.560Z,61.07
2022-09-26T15:21:06.847Z,61.12
2022-09-26T15:23:44.663Z,61.22
2022-09-26T15:26:12.098Z,61.60
2022-09-26T15:28:39.319Z,62.59
2022-09-26T15:31:28.381Z,61.62
2022-09-26T15:34:04.616Z,60.65
2022-09-26T15:36:36.938Z,60.48
2022-09-26T15:39:26.837Z,60.94
2022-09-26T15:42:12.759Z,61.00
2022-09-26T15:44:54.217Z,62.42
2022-09-26T15:47:41.837Z,63.26
2022-09-26T15:50:10.958Z,63.88
2022-09-26T15:52:44.578Z,62.99
2022-09-26T15:55:34.458Z,63.64
2022-09-26T15:58:05.478Z,63.30
2022-09-26T16:00:36.319Z,63.59
2022-09-26T16:03:40.659Z,64.58
2022-09-26T16:06:25.420Z,66.98
2022-09-26T16:09:17.280Z,67.41
2022-09-26T16:11:48.626Z,68.19
2022-09-26T16:14:30.923Z,68.71
2022-09-26T16:17:11.978Z,68.61
2022-09-26T16:19:51.300Z,68.71
2022-09-26T16:22:23.197Z,68.65
2022-09-26T16:24:51.797Z,68.30
2022-09-26T16:27:34.731Z,68.69
2022-09-26T16:30:05.204Z,68.56
2022-09-26T16:32:32.739Z,68.65
2022-09-26T16:35:19.842Z,68.97
2022-09-26T16:38:01.780Z,68.75
2022-09-26T16:40:31.636Z,67.68
2022-09-26T16:43:15.258Z,67.62
2022-09-26T16:45:56.565Z,67.64
2022-09-26T16:48:43.497Z,67.87
2022-09-26T16:51:22.340Z,68.23
2022-09-26T16:54:16.639Z,68.35
2022-09-26T16:56:44.841Z,68.72
2022-09-26T16:59:17.999Z,69.26
2022-09-26T17:01:55.050Z,69.55
2022-09-26T17:04:36.419Z,69.69
2022-09-26T17:07:10.578Z,70.08
2022-09-26T17:09:37.877Z,70.22
2022-09-26T17:12:16.917Z,69.95
2022-09-26T17:14:48.346Z,69.83
2022-09-26T17:17:22.055Z,69.56
2022-09-26T17:19:56.820Z,69.67
2022-09-26T17:22:26.852Z,69.68
2022-09-26T17:24:54.500Z,69.61
2022-09-26T17:27:30.837Z,69.40
2022-09-26T17:30:02.959Z,69.43
2022-09-26T17:32:34.100Z,69.51
2022-09-26T17:35:04.174Z,69.28
2022-09-26T17:37:31.565Z,69.44
2022-09-26T17:39:58.840Z,69.05
2022-09-26T17:42:26.623Z,68.84
2022-09-26T17:44:54.158Z,69.02
2022-09-26T17:47:21.220Z,68.61
2022-09-26T17:49:54.954Z,68.45
2022-09-26T17:52:25.210Z,68.35
2022-09-26T17:54:59.938Z,68.95
2022-09-26T17:57:30.406Z,68.48
2022-09-26T17:59:58.102Z,68.57
2022-09-26T18:02:35.740Z,68.86
2022-09-26T18:05:08.681Z,68.95
2022-09-26T18:07:40.258Z,69.00
2022-09-26T18:10:19.539Z,68.84
2022-09-26T18:12:58.116Z,68.76
2022-09-26T18:15:27.002Z,68.92
2022-09-26T18:17:54.436Z,68.63
2022-09-26T18:20:27.599Z,68.90
2022-09-26T18:22:54.972Z,68.87
2022-09-26T18:25:25.537Z,68.43
2022-09-26T18:27:56.698Z,68.74
2022-09-26T18:30:24.364Z,68.26
2022-09-26T18:32:55.338Z,68.34
2022-09-26T18:35:25.387Z,68.06
2022-09-26T18:37:55.606Z,68.16
2022-09-26T18:40:28.061Z,68.80
2022-09-26T18:42:58.085Z,68.55
2022-09-26T18:45:34.857Z,68.67
2022-09-26T18:48:12.800Z,68.83
2022-09-26T18:50:40.438Z,68.25
2022-09-26T18:53:14.362Z,68.28
2022-09-26T18:56:00.101Z,68.11
2022-09-26T18:58:28.300Z,67.92
2022-09-26T19:01:08.212Z,68.05
2022-09-26T19:03:38.194Z,68.16
2022-09-26T19:06:25.438Z,68.39
2022-09-26T19:09:02.239Z,68.63
2022-09-26T19:11:35.401Z,69.02
2022-09-26T19:14:17.705Z,68.42
2022-09-26T19:16:47.084Z,67.98
2022-09-26T19:19:15.099Z,68.22
2022-09-26T19:21:43.777Z,68.86
2022-09-26T19:24:23.477Z,69.46
2022-09-26T19:26:55.319Z,70.31
2022-09-26T19:29:37.101Z,70.44
2022-09-26T19:32:07.483Z,70.47
2022-09-26T19:34:35.117Z,71.05
2022-09-26T19:37:03.339Z,71.24
2022-09-26T19:39:32.041Z,70.98
2022-09-26T19:41:59.290Z,71.33
2022-09-26T19:44:29.420Z,71.09
2022-09-26T19:46:59.960Z,71.18
2022-09-26T19:49:29.217Z,71.44
2022-09-26T19:51:56.890Z,70.98
2022-09-26T19:54:24.260Z,71.31
2022-09-26T19:56:51.477Z,70.88
2022-09-26T19:59:21.354Z,71.08
2022-09-26T20:01:52.013Z,71.02
2022-09-26T20:04:19.757Z,71.02
2022-09-26T20:06:47.625Z,71.13
2022-09-26T20:09:19.556Z,70.97
2022-09-26T20:11:46.816Z,70.81
2022-09-26T20:14:26.335Z,70.81
2022-09-26T20:17:08.998Z,70.66
2022-09-26T20:19:38.916Z,70.66
2022-09-26T20:22:15.642Z,70.39
2022-09-26T20:24:43.978Z,70.65
2022-09-26T20:27:16.498Z,70.52
2022-09-26T20:30:02.419Z,70.33
2022-09-26T20:32:30.358Z,70.50
2022-09-26T20:35:00.618Z,70.33
2022-09-26T20:37:35.457Z,70.34
2022-09-26T20:40:12.967Z,70.57
2022-09-26T20:42:41.819Z,70.38
2022-09-26T20:45:16.764Z,70.77
2022-09-26T20:47:45.457Z,70.75
2022-09-26T20:50:18.746Z,70.78
2022-09-26T20:52:46.056Z,70.91
2022-09-26T20:55:20.217Z,70.53
2022-09-26T20:57:48.296Z,70.80
2022-09-26T21:00:18.076Z,70.62
2022-09-26T21:02:51.615Z,70.73
2022-09-26T21:05:23.037Z,70.28
2022-09-26T21:07:52.036Z,70.57
2022-09-26T21:10:34.362Z,69.98
2022-09-26T21:13:01.638Z,69.79
2022-09-26T21:15:32.460Z,70.31
2022-09-26T21:18:01.060Z,70.09
2022-09-26T21:20:34.916Z,70.39
2022-09-26T21:23:19.436Z,70.83
2022-09-26T21:25:47.290Z,70.73
2022-09-26T21:28:14.226Z,71.10
2022-09-26T21:30:42.478Z,71.32
2022-09-26T21:33:11.345Z,71.33
2022-09-26T21:35:38.437Z,71.23
2022-09-26T21:38:05.838Z,71.48
2022-09-26T21:40:38.549Z,71.09
2022-09-26T21:43:27.458Z,71.35
2022-09-26T21:45:54.591Z,71.39
2022-09-26T21:48:21.797Z,71.08
2022-09-26T21:50:57.692Z,71.57
2022-09-26T21:53:51.457Z,71.16
2022-09-26T21:56:24.537Z,71.43
2022-09-26T21:58:52.878Z,71.39
2022-09-26T22:01:20.607Z,71.64
2022-09-26T22:03:47.701Z,71.77
2022-09-26T22:06:14.900Z,71.97
2022-09-26T22:08:43.559Z,72.20
2022-09-26T22:11:10.599Z,71.97
2022-09-26T22:13:38.536Z,71.92
2022-09-26T22:16:07.201Z,71.98
2022-09-26T22:18:35.848Z,72.04
2022-09-26T22:21:04.634Z,72.04
2022-09-26T22:23:35.219Z,71.94
2022-09-26T22:26:02.896Z,71.85
2022-09-26T22:28:29.997Z,71.96
2022-09-26T22:31:02.087Z,72.01
2022-09-26T22:33:29.570Z,71.67
2022-09-26T22:35:56.678Z,71.48
2022-09-26T22:38:23.939Z,71.55
2022-09-26T22:41:03.333Z,71.51
2022-09-26T22:43:31.880Z,71.79
2022-09-26T22:46:07.060Z,71.82
2022-09-26T22:48:39.338Z,71.78
2022-09-26T22:51:07.076Z,71.85
2022-09-26T22:53:36.058Z,71.97
2022-09-26T22:56:06.608Z,72.27
2022-09-26T22:58:38.436Z,72.27
2022-09-26T23:01:08.884Z,72.22
2022-09-26T23:03:36.619Z,72.09
2022-09-26T23:06:04.877Z,71.86
2022-09-26T23:08:35.477Z,72.14
2022-09-26T23:11:03.980Z,71.87
2022-09-26T23:13:31.879Z,72.42
2022-09-26T23:16:06.582Z,72.70
2022-09-26T23:18:35.120Z,72.56
2022-09-26T23:21:09.193Z,72.23
2022-09-26T23:23:36.521Z,72.36
2022-09-26T23:26:04.640Z,72.43
2022-09-26T23:28:33.113Z,72.95
2022-09-26T23:31:11.315Z,72.64
2022-09-26T23:33:39.280Z,72.81
2022-09-26T23:36:07.369Z,72.46
2022-09-26T23:38:35.734Z,72.33
2022-09-26T23:41:02.797Z,72.09
2022-09-26T23:43:29.930Z,72.10
2022-09-26T23:45:57.406Z,72.60
2022-09-26T23:48:24.561Z,72.79
2022-09-26T23:50:51.662Z,72.62
2022-09-26T23:53:18.822Z,72.93
2022-09-26T23:55:45.880Z,73.05
2022-09-26T23:58:13.068Z,73.09
